sensor_id;sensor_type;location;lat;lon;timestamp;temperature;humidity
17341;DHT22;8788;49.930;8.660;2024-03-22T00:02:11;10.80;99.90
17341;DHT22;8788;49.930;8.660;2024-03-22T00:04:37;10.80;99.90
17341;DHT22;8788;49.930;8.660;2024-03-22T00:07:04;10.70;99.90
17341;DHT22;8788;49.930;8.660;2024-03-22T00:09:31;10.70;99.90
17341;DHT22;8788;49.930;8.660;2024-03-22T00:11:58;10.70;99.90
17341;DHT22;8788;49.930;8.660;2024-03-22T00:14:24;10.60;99.90
17341;DHT22;8788;49.930;8.660;2024-03-22T00:16:51;10.60;99.90
17341;DHT22;8788;49.930;8.660;2024-03-22T00:19:18;10.60;99.90
17341;DHT22;8788;49.930;8.660;2024-03-22T00:21:45;10.60;99.90
17341;DHT22;8788;49.930;8.660;2024-03-22T00:24:11;10.50;99.90
17341;DHT22;8788;49.930;8.660;2024-03-22T00:26:38;10.50;99.90
17341;DHT22;8788;49.930;8.660;2024-03-22T00:29:05;10.40;99.90
17341;DHT22;8788;49.930;8.660;2024-03-22T00:31:32;10.30;99.90
17341;DHT22;8788;49.930;8.660;2024-03-22T00:33:59;10.30;99.90
17341;DHT22;8788;49.930;8.660;2024-03-22T00:36:26;10.30;99.90
17341;DHT22;8788;49.930;8.660;2024-03-22T00:38:54;10.20;99.90
17341;DHT22;8788;49.930;8.660;2024-03-22T00:41:20;10.10;99.90
17341;DHT22;8788;49.930;8.660;2024-03-22T00:43:47;10.10;99.90
17341;DHT22;8788;49.930;8.660;2024-03-22T00:46:13;10.00;99.90
17341;DHT22;8788;49.930;8.660;2024-03-22T00:48:40;9.90;99.90
17341;DHT22;8788;49.930;8.660;2024-03-22T00:51:06;9.90;99.90
17341;DHT22;8788;49.930;8.660;2024-03-22T00:53:34;9.80;99.90
17341;DHT22;8788;49.930;8.660;2024-03-22T00:56:01;9.70;99.90
17341;DHT22;8788;49.930;8.660;2024-03-22T00:58:27;9.60;99.90
17341;DHT22;8788;49.930;8.660;2024-03-22T01:00:55;9.60;99.90
17341;DHT22;8788;49.930;8.660;2024-03-22T01:03:21;9.50;99.90
17341;DHT22;8788;49.930;8.660;2024-03-22T01:05:49;9.40;99.90
17341;DHT22;8788;49.930;8.660;2024-03-22T01:08:15;9.40;99.90
17341;DHT22;8788;49.930;8.660;2024-03-22T01:10:43;9.40;99.90
17341;DHT22;8788;49.930;8.660;2024-03-22T01:13:09;9.40;99.90
17341;DHT22;8788;49.930;8.660;2024-03-22T01:15:36;9.40;99.90
17341;DHT22;8788;49.930;8.660;2024-03-22T01:18:03;9.40;99.90
17341;DHT22;8788;49.930;8.660;2024-03-22T01:20:30;9.30;99.90
17341;DHT22;8788;49.930;8.660;2024-03-22T01:22:56;9.20;99.90
17341;DHT22;8788;49.930;8.660;2024-03-22T01:25:23;9.10;99.90
17341;DHT22;8788;49.930;8.660;2024-03-22T01:27:50;9.10;99.90
17341;DHT22;8788;49.930;8.660;2024-03-22T01:30:17;9.00;99.90
17341;DHT22;8788;49.930;8.660;2024-03-22T01:32:43;9.10;99.90
17341;DHT22;8788;49.930;8.660;2024-03-22T01:35:11;9.00;99.90
17341;DHT22;8788;49.930;8.660;2024-03-22T01:37:37;9.00;99.90
17341;DHT22;8788;49.930;8.660;2024-03-22T01:40:05;9.00;99.90
17341;DHT22;8788;49.930;8.660;2024-03-22T01:42:32;9.00;99.90
17341;DHT22;8788;49.930;8.660;2024-03-22T01:45:00;9.00;99.90
17341;DHT22;8788;49.930;8.660;2024-03-22T01:47:26;9.10;99.90
17341;DHT22;8788;49.930;8.660;2024-03-22T01:49:55;9.10;99.90
17341;DHT22;8788;49.930;8.660;2024-03-22T01:52:21;9.10;99.90
17341;DHT22;8788;49.930;8.660;2024-03-22T01:54:49;9.10;99.90
17341;DHT22;8788;49.930;8.660;2024-03-22T01:57:15;9.10;99.90
17341;DHT22;8788;49.930;8.660;2024-03-22T01:59:43;9.00;99.90
17341;DHT22;8788;49.930;8.660;2024-03-22T02:02:10;8.90;99.90
17341;DHT22;8788;49.930;8.660;2024-03-22T02:04:38;8.90;99.90
17341;DHT22;8788;49.930;8.660;2024-03-22T02:07:04;8.90;99.90
17341;DHT22;8788;49.930;8.660;2024-03-22T02:09:31;8.80;99.90
17341;DHT22;8788;49.930;8.660;2024-03-22T02:11:57;8.70;99.90
17341;DHT22;8788;49.930;8.660;2024-03-22T02:14:24;8.60;99.90
17341;DHT22;8788;49.930;8.660;2024-03-22T02:16:51;8.60;99.90
17341;DHT22;8788;49.930;8.660;2024-03-22T02:19:19;8.60;99.90
17341;DHT22;8788;49.930;8.660;2024-03-22T02:21:45;8.60;99.90
17341;DHT22;8788;49.930;8.660;2024-03-22T02:24:14;8.50;99.90
17341;DHT22;8788;49.930;8.660;2024-03-22T02:26:40;8.50;99.90
17341;DHT22;8788;49.930;8.660;2024-03-22T02:29:07;8.50;99.90
17341;DHT22;8788;49.930;8.660;2024-03-22T02:31:33;8.40;99.90
17341;DHT22;8788;49.930;8.660;2024-03-22T02:34:00;8.40;99.90
17341;DHT22;8788;49.930;8.660;2024-03-22T02:36:26;8.30;99.90
17341;DHT22;8788;49.930;8.660;2024-03-22T02:38:54;8.30;99.90
17341;DHT22;8788;49.930;8.660;2024-03-22T02:41:21;8.30;99.90
17341;DHT22;8788;49.930;8.660;2024-03-22T02:43:48;8.30;99.90
17341;DHT22;8788;49.930;8.660;2024-03-22T02:46:14;8.30;99.90
17341;DHT22;8788;49.930;8.660;2024-03-22T02:48:41;8.40;99.90
17341;DHT22;8788;49.930;8.660;2024-03-22T02:51:08;8.40;99.90
17341;DHT22;8788;49.930;8.660;2024-03-22T02:53:35;8.40;99.90
17341;DHT22;8788;49.930;8.660;2024-03-22T02:56:01;8.40;99.90
17341;DHT22;8788;49.930;8.660;2024-03-22T02:58:29;8.50;99.90
17341;DHT22;8788;49.930;8.660;2024-03-22T03:00:55;8.50;99.90
17341;DHT22;8788;49.930;8.660;2024-03-22T03:03:22;8.50;99.90
17341;DHT22;8788;49.930;8.660;2024-03-22T03:05:48;8.50;99.90
17341;DHT22;8788;49.930;8.660;2024-03-22T03:08:15;8.50;99.90
17341;DHT22;8788;49.930;8.660;2024-03-22T03:10:41;8.50;99.90
17341;DHT22;8788;49.930;8.660;2024-03-22T03:13:08;8.60;99.90
17341;DHT22;8788;49.930;8.660;2024-03-22T03:15:36;8.60;99.90
17341;DHT22;8788;49.930;8.660;2024-03-22T03:18:03;8.60;99.90
17341;DHT22;8788;49.930;8.660;2024-03-22T03:20:29;8.60;99.90
17341;DHT22;8788;49.930;8.660;2024-03-22T03:22:56;8.60;99.90
17341;DHT22;8788;49.930;8.660;2024-03-22T03:25:25;8.50;99.90
17341;DHT22;8788;49.930;8.660;2024-03-22T03:27:52;8.50;99.90
17341;DHT22;8788;49.930;8.660;2024-03-22T03:30:18;8.40;99.90
17341;DHT22;8788;49.930;8.660;2024-03-22T03:32:46;8.30;99.90
17341;DHT22;8788;49.930;8.660;2024-03-22T03:35:13;8.20;99.90
17341;DHT22;8788;49.930;8.660;2024-03-22T03:37:40;8.20;99.90
17341;DHT22;8788;49.930;8.660;2024-03-22T03:40:07;8.10;99.90
17341;DHT22;8788;49.930;8.660;2024-03-22T03:42:35;8.10;99.90
17341;DHT22;8788;49.930;8.660;2024-03-22T03:45:01;8.10;99.90
17341;DHT22;8788;49.930;8.660;2024-03-22T03:47:29;8.10;99.90
17341;DHT22;8788;49.930;8.660;2024-03-22T03:49:56;8.10;99.90
17341;DHT22;8788;49.930;8.660;2024-03-22T03:52:23;8.20;99.90
17341;DHT22;8788;49.930;8.660;2024-03-22T03:54:50;8.20;99.90
17341;DHT22;8788;49.930;8.660;2024-03-22T03:57:17;8.30;99.90
17341;DHT22;8788;49.930;8.660;2024-03-22T03:59:43;8.30;99.90
17341;DHT22;8788;49.930;8.660;2024-03-22T04:02:10;8.30;99.90
17341;DHT22;8788;49.930;8.660;2024-03-22T04:04:36;8.30;99.90
17341;DHT22;8788;49.930;8.660;2024-03-22T04:07:04;8.30;99.90
17341;DHT22;8788;49.930;8.660;2024-03-22T04:09:30;8.40;99.90
17341;DHT22;8788;49.930;8.660;2024-03-22T04:11:59;8.40;99.90
17341;DHT22;8788;49.930;8.660;2024-03-22T04:14:25;8.40;99.90
17341;DHT22;8788;49.930;8.660;2024-03-22T04:16:52;8.30;99.90
17341;DHT22;8788;49.930;8.660;2024-03-22T04:19:20;8.30;99.90
17341;DHT22;8788;49.930;8.660;2024-03-22T04:21:49;8.20;99.90
17341;DHT22;8788;49.930;8.660;2024-03-22T04:24:16;8.20;99.90
17341;DHT22;8788;49.930;8.660;2024-03-22T04:26:44;8.10;99.90
17341;DHT22;8788;49.930;8.660;2024-03-22T04:29:10;8.10;99.90
17341;DHT22;8788;49.930;8.660;2024-03-22T04:31:37;8.10;99.90
17341;DHT22;8788;49.930;8.660;2024-03-22T04:34:03;8.10;99.90
17341;DHT22;8788;49.930;8.660;2024-03-22T04:36:31;8.10;99.90
17341;DHT22;8788;49.930;8.660;2024-03-22T04:38:57;8.20;99.90
17341;DHT22;8788;49.930;8.660;2024-03-22T04:41:25;8.20;99.90
17341;DHT22;8788;49.930;8.660;2024-03-22T04:43:52;8.30;99.90
17341;DHT22;8788;49.930;8.660;2024-03-22T04:46:18;8.30;99.90
17341;DHT22;8788;49.930;8.660;2024-03-22T04:48:45;8.30;99.90
17341;DHT22;8788;49.930;8.660;2024-03-22T04:51:11;8.30;99.90
17341;DHT22;8788;49.930;8.660;2024-03-22T04:53:39;8.30;99.90
17341;DHT22;8788;49.930;8.660;2024-03-22T04:56:05;8.40;99.90
17341;DHT22;8788;49.930;8.660;2024-03-22T04:58:36;8.40;99.90
17341;DHT22;8788;49.930;8.660;2024-03-22T05:01:02;8.50;99.90
17341;DHT22;8788;49.930;8.660;2024-03-22T05:03:29;8.50;99.90
17341;DHT22;8788;49.930;8.660;2024-03-22T05:05:55;8.60;99.90
17341;DHT22;8788;49.930;8.660;2024-03-22T05:08:23;8.60;99.90
17341;DHT22;8788;49.930;8.660;2024-03-22T05:10:49;8.70;99.90
17341;DHT22;8788;49.930;8.660;2024-03-22T05:13:16;8.70;99.90
17341;DHT22;8788;49.930;8.660;2024-03-22T05:15:43;8.80;99.90
17341;DHT22;8788;49.930;8.660;2024-03-22T05:18:10;8.80;99.90
17341;DHT22;8788;49.930;8.660;2024-03-22T05:20:36;8.90;99.90
17341;DHT22;8788;49.930;8.660;2024-03-22T05:23:03;8.90;99.90
17341;DHT22;8788;49.930;8.660;2024-03-22T05:25:29;9.00;99.90
17341;DHT22;8788;49.930;8.660;2024-03-22T05:27:56;9.00;99.90
17341;DHT22;8788;49.930;8.660;2024-03-22T05:30:23;9.10;99.90
17341;DHT22;8788;49.930;8.660;2024-03-22T05:32:51;9.10;99.90
17341;DHT22;8788;49.930;8.660;2024-03-22T05:35:17;9.10;99.90
17341;DHT22;8788;49.930;8.660;2024-03-22T05:37:45;9.00;99.90
17341;DHT22;8788;49.930;8.660;2024-03-22T05:40:12;9.10;99.90
17341;DHT22;8788;49.930;8.660;2024-03-22T05:42:39;9.10;99.90
17341;DHT22;8788;49.930;8.660;2024-03-22T05:45:06;9.10;99.90
17341;DHT22;8788;49.930;8.660;2024-03-22T05:47:33;9.20;99.90
17341;DHT22;8788;49.930;8.660;2024-03-22T05:50:02;9.20;99.90
17341;DHT22;8788;49.930;8.660;2024-03-22T05:52:28;9.30;99.90
17341;DHT22;8788;49.930;8.660;2024-03-22T05:54:55;9.40;99.90
17341;DHT22;8788;49.930;8.660;2024-03-22T05:57:21;9.40;99.90
17341;DHT22;8788;49.930;8.660;2024-03-22T05:59:48;9.60;99.90
17341;DHT22;8788;49.930;8.660;2024-03-22T06:02:14;9.70;99.90
17341;DHT22;8788;49.930;8.660;2024-03-22T06:04:42;9.80;99.90
17341;DHT22;8788;49.930;8.660;2024-03-22T06:07:09;9.90;99.90
17341;DHT22;8788;49.930;8.660;2024-03-22T06:09:36;10.00;99.90
17341;DHT22;8788;49.930;8.660;2024-03-22T06:12:04;10.10;99.90
17341;DHT22;8788;49.930;8.660;2024-03-22T06:14:31;10.20;99.90
17341;DHT22;8788;49.930;8.660;2024-03-22T06:16:58;10.30;99.90
17341;DHT22;8788;49.930;8.660;2024-03-22T06:19:25;10.30;99.90
17341;DHT22;8788;49.930;8.660;2024-03-22T06:21:51;10.30;99.90
17341;DHT22;8788;49.930;8.660;2024-03-22T06:24:19;10.50;99.90
17341;DHT22;8788;49.930;8.660;2024-03-22T06:26:46;10.60;99.90
17341;DHT22;8788;49.930;8.660;2024-03-22T06:29:15;10.70;99.90
17341;DHT22;8788;49.930;8.660;2024-03-22T06:31:42;10.90;99.90
17341;DHT22;8788;49.930;8.660;2024-03-22T06:34:09;11.10;99.90
17341;DHT22;8788;49.930;8.660;2024-03-22T06:36:35;11.30;99.90
17341;DHT22;8788;49.930;8.660;2024-03-22T06:39:02;11.50;99.90
17341;DHT22;8788;49.930;8.660;2024-03-22T06:41:34;11.50;99.90
17341;DHT22;8788;49.930;8.660;2024-03-22T06:44:01;11.60;99.90
17341;DHT22;8788;49.930;8.660;2024-03-22T06:46:27;11.60;99.90
17341;DHT22;8788;49.930;8.660;2024-03-22T06:48:55;11.60;99.90
17341;DHT22;8788;49.930;8.660;2024-03-22T06:51:21;11.70;99.90
17341;DHT22;8788;49.930;8.660;2024-03-22T06:53:48;11.80;99.90
17341;DHT22;8788;49.930;8.660;2024-03-22T06:56:14;11.80;99.90
17341;DHT22;8788;49.930;8.660;2024-03-22T06:58:43;11.90;99.90
17341;DHT22;8788;49.930;8.660;2024-03-22T07:01:09;12.00;99.90
17341;DHT22;8788;49.930;8.660;2024-03-22T07:03:36;12.00;99.90
17341;DHT22;8788;49.930;8.660;2024-03-22T07:06:02;12.00;99.90
17341;DHT22;8788;49.930;8.660;2024-03-22T07:08:31;12.00;99.90
17341;DHT22;8788;49.930;8.660;2024-03-22T07:10:57;12.10;99.90
17341;DHT22;8788;49.930;8.660;2024-03-22T07:13:25;12.10;99.90
17341;DHT22;8788;49.930;8.660;2024-03-22T07:15:52;12.10;99.90
17341;DHT22;8788;49.930;8.660;2024-03-22T07:18:19;12.20;99.90
17341;DHT22;8788;49.930;8.660;2024-03-22T07:20:45;12.30;99.90
17341;DHT22;8788;49.930;8.660;2024-03-22T07:23:13;12.30;99.90
17341;DHT22;8788;49.930;8.660;2024-03-22T07:25:39;12.30;99.90
17341;DHT22;8788;49.930;8.660;2024-03-22T07:28:09;12.40;99.90
17341;DHT22;8788;49.930;8.660;2024-03-22T07:30:35;12.40;99.90
17341;DHT22;8788;49.930;8.660;2024-03-22T07:33:04;12.40;99.90
17341;DHT22;8788;49.930;8.660;2024-03-22T07:35:30;12.50;99.90
17341;DHT22;8788;49.930;8.660;2024-03-22T07:37:57;12.60;99.90
17341;DHT22;8788;49.930;8.660;2024-03-22T07:40:23;12.50;99.90
17341;DHT22;8788;49.930;8.660;2024-03-22T07:42:50;12.60;99.90
17341;DHT22;8788;49.930;8.660;2024-03-22T07:45:16;12.50;99.90
17341;DHT22;8788;49.930;8.660;2024-03-22T07:47:43;12.60;99.90
17341;DHT22;8788;49.930;8.660;2024-03-22T07:50:11;12.60;99.90
17341;DHT22;8788;49.930;8.660;2024-03-22T07:52:38;12.60;99.90
17341;DHT22;8788;49.930;8.660;2024-03-22T07:55:04;12.60;99.90
17341;DHT22;8788;49.930;8.660;2024-03-22T07:57:32;12.70;99.90
17341;DHT22;8788;49.930;8.660;2024-03-22T07:59:58;12.80;99.90
17341;DHT22;8788;49.930;8.660;2024-03-22T08:02:25;12.80;99.90
17341;DHT22;8788;49.930;8.660;2024-03-22T08:04:51;12.90;99.90
17341;DHT22;8788;49.930;8.660;2024-03-22T08:07:19;12.90;99.90
17341;DHT22;8788;49.930;8.660;2024-03-22T08:09:46;12.90;99.90
17341;DHT22;8788;49.930;8.660;2024-03-22T08:12:13;12.90;99.90
17341;DHT22;8788;49.930;8.660;2024-03-22T08:14:39;13.00;99.90
17341;DHT22;8788;49.930;8.660;2024-03-22T08:17:07;13.00;99.90
17341;DHT22;8788;49.930;8.660;2024-03-22T08:19:34;13.00;99.90
17341;DHT22;8788;49.930;8.660;2024-03-22T08:22:02;13.00;99.90
17341;DHT22;8788;49.930;8.660;2024-03-22T08:24:29;13.10;99.90
17341;DHT22;8788;49.930;8.660;2024-03-22T08:26:56;13.20;99.90
17341;DHT22;8788;49.930;8.660;2024-03-22T08:29:22;13.20;99.90
17341;DHT22;8788;49.930;8.660;2024-03-22T08:31:49;13.20;99.90
17341;DHT22;8788;49.930;8.660;2024-03-22T08:34:15;13.20;99.90
17341;DHT22;8788;49.930;8.660;2024-03-22T08:36:42;13.30;99.90
17341;DHT22;8788;49.930;8.660;2024-03-22T08:39:09;13.30;99.90
17341;DHT22;8788;49.930;8.660;2024-03-22T08:41:37;13.30;99.90
17341;DHT22;8788;49.930;8.660;2024-03-22T08:44:04;13.30;99.90
17341;DHT22;8788;49.930;8.660;2024-03-22T08:46:31;13.30;99.90
17341;DHT22;8788;49.930;8.660;2024-03-22T08:48:58;13.30;99.90
17341;DHT22;8788;49.930;8.660;2024-03-22T08:51:25;13.40;99.90
17341;DHT22;8788;49.930;8.660;2024-03-22T08:53:51;13.40;99.90
17341;DHT22;8788;49.930;8.660;2024-03-22T08:56:18;13.50;99.90
17341;DHT22;8788;49.930;8.660;2024-03-22T08:58:46;13.50;99.90
17341;DHT22;8788;49.930;8.660;2024-03-22T09:01:13;13.60;99.90
17341;DHT22;8788;49.930;8.660;2024-03-22T09:03:39;13.70;99.90
17341;DHT22;8788;49.930;8.660;2024-03-22T09:06:06;13.70;99.90
17341;DHT22;8788;49.930;8.660;2024-03-22T09:08:32;13.80;99.90
17341;DHT22;8788;49.930;8.660;2024-03-22T09:10:59;13.90;99.90
17341;DHT22;8788;49.930;8.660;2024-03-22T09:13:25;14.00;99.90
17341;DHT22;8788;49.930;8.660;2024-03-22T09:15:58;14.10;99.90
17341;DHT22;8788;49.930;8.660;2024-03-22T09:18:24;14.20;99.90
17341;DHT22;8788;49.930;8.660;2024-03-22T09:20:52;14.30;99.90
17341;DHT22;8788;49.930;8.660;2024-03-22T09:23:18;14.40;99.90
17341;DHT22;8788;49.930;8.660;2024-03-22T09:25:45;14.40;99.90
17341;DHT22;8788;49.930;8.660;2024-03-22T09:28:12;14.50;99.90
17341;DHT22;8788;49.930;8.660;2024-03-22T09:30:39;14.60;99.90
17341;DHT22;8788;49.930;8.660;2024-03-22T09:33:07;14.60;99.90
17341;DHT22;8788;49.930;8.660;2024-03-22T09:35:34;14.70;99.90
17341;DHT22;8788;49.930;8.660;2024-03-22T09:38:01;14.80;99.90
17341;DHT22;8788;49.930;8.660;2024-03-22T09:40:28;14.90;99.90
17341;DHT22;8788;49.930;8.660;2024-03-22T09:42:54;14.90;99.90
17341;DHT22;8788;49.930;8.660;2024-03-22T09:45:27;14.90;99.90
17341;DHT22;8788;49.930;8.660;2024-03-22T09:47:53;15.00;99.90
17341;DHT22;8788;49.930;8.660;2024-03-22T09:50:22;15.10;99.90
17341;DHT22;8788;49.930;8.660;2024-03-22T09:52:52;15.20;99.90
17341;DHT22;8788;49.930;8.660;2024-03-22T09:55:22;15.30;99.90
17341;DHT22;8788;49.930;8.660;2024-03-22T09:57:49;15.30;99.90
17341;DHT22;8788;49.930;8.660;2024-03-22T10:00:18;15.40;99.90
17341;DHT22;8788;49.930;8.660;2024-03-22T10:02:46;15.60;99.90
17341;DHT22;8788;49.930;8.660;2024-03-22T10:05:14;15.70;99.90
17341;DHT22;8788;49.930;8.660;2024-03-22T10:07:43;15.80;99.90
17341;DHT22;8788;49.930;8.660;2024-03-22T10:10:10;15.90;99.90
17341;DHT22;8788;49.930;8.660;2024-03-22T10:12:36;16.00;99.90
17341;DHT22;8788;49.930;8.660;2024-03-22T10:15:05;16.10;99.90
17341;DHT22;8788;49.930;8.660;2024-03-22T10:17:34;16.20;99.90
17341;DHT22;8788;49.930;8.660;2024-03-22T10:20:02;16.20;99.90
17341;DHT22;8788;49.930;8.660;2024-03-22T10:22:28;16.20;99.90
17341;DHT22;8788;49.930;8.660;2024-03-22T10:24:56;16.10;99.90
17341;DHT22;8788;49.930;8.660;2024-03-22T10:27:27;16.10;99.90
17341;DHT22;8788;49.930;8.660;2024-03-22T10:29:54;16.00;99.90
17341;DHT22;8788;49.930;8.660;2024-03-22T10:32:21;16.20;99.90
17341;DHT22;8788;49.930;8.660;2024-03-22T10:34:50;16.30;99.90
17341;DHT22;8788;49.930;8.660;2024-03-22T10:37:16;16.40;99.90
17341;DHT22;8788;49.930;8.660;2024-03-22T10:39:43;16.40;99.90
17341;DHT22;8788;49.930;8.660;2024-03-22T10:42:13;16.40;99.90
17341;DHT22;8788;49.930;8.660;2024-03-22T10:44:41;16.50;99.90
17341;DHT22;8788;49.930;8.660;2024-03-22T10:47:09;16.70;99.90
17341;DHT22;8788;49.930;8.660;2024-03-22T10:49:39;16.90;99.90
17341;DHT22;8788;49.930;8.660;2024-03-22T10:52:07;17.10;99.90
17341;DHT22;8788;49.930;8.660;2024-03-22T10:54:39;17.30;99.90
17341;DHT22;8788;49.930;8.660;2024-03-22T10:57:07;17.40;99.90
17341;DHT22;8788;49.930;8.660;2024-03-22T10:59:41;17.30;99.90
17341;DHT22;8788;49.930;8.660;2024-03-22T11:02:10;17.20;99.90
17341;DHT22;8788;49.930;8.660;2024-03-22T11:04:38;17.10;99.90
17341;DHT22;8788;49.930;8.660;2024-03-22T11:07:04;17.00;99.90
17341;DHT22;8788;49.930;8.660;2024-03-22T11:09:31;17.00;99.90
17341;DHT22;8788;49.930;8.660;2024-03-22T11:11:58;16.90;99.90
17341;DHT22;8788;49.930;8.660;2024-03-22T11:14:26;16.90;99.90
17341;DHT22;8788;49.930;8.660;2024-03-22T11:16:53;17.00;99.90
17341;DHT22;8788;49.930;8.660;2024-03-22T11:19:20;17.00;99.90
17341;DHT22;8788;49.930;8.660;2024-03-22T11:21:46;17.10;99.90
17341;DHT22;8788;49.930;8.660;2024-03-22T11:24:13;17.00;99.90
17341;DHT22;8788;49.930;8.660;2024-03-22T11:26:39;16.90;99.90
17341;DHT22;8788;49.930;8.660;2024-03-22T11:29:06;16.90;99.90
17341;DHT22;8788;49.930;8.660;2024-03-22T11:31:34;16.80;99.90
17341;DHT22;8788;49.930;8.660;2024-03-22T11:34:02;16.80;99.90
17341;DHT22;8788;49.930;8.660;2024-03-22T11:36:29;16.90;99.90
17341;DHT22;8788;49.930;8.660;2024-03-22T11:38:56;17.10;99.90
17341;DHT22;8788;49.930;8.660;2024-03-22T11:41:25;17.20;99.90
17341;DHT22;8788;49.930;8.660;2024-03-22T11:43:53;17.50;99.90
17341;DHT22;8788;49.930;8.660;2024-03-22T11:46:19;17.80;99.90
17341;DHT22;8788;49.930;8.660;2024-03-22T11:48:51;17.90;99.90
17341;DHT22;8788;49.930;8.660;2024-03-22T11:51:19;18.00;99.90
17341;DHT22;8788;49.930;8.660;2024-03-22T11:53:49;18.10;99.90
17341;DHT22;8788;49.930;8.660;2024-03-22T11:56:18;18.10;99.90
17341;DHT22;8788;49.930;8.660;2024-03-22T11:58:46;18.30;99.90
17341;DHT22;8788;49.930;8.660;2024-03-22T12:01:13;18.30;99.90
17341;DHT22;8788;49.930;8.660;2024-03-22T12:03:43;18.40;99.90
17341;DHT22;8788;49.930;8.660;2024-03-22T12:06:10;18.60;99.90
17341;DHT22;8788;49.930;8.660;2024-03-22T12:08:39;18.60;99.90
17341;DHT22;8788;49.930;8.660;2024-03-22T12:11:07;18.70;99.90
17341;DHT22;8788;49.930;8.660;2024-03-22T12:13:35;18.70;99.90
17341;DHT22;8788;49.930;8.660;2024-03-22T12:16:01;18.80;99.90
17341;DHT22;8788;49.930;8.660;2024-03-22T12:18:28;18.80;99.90
17341;DHT22;8788;49.930;8.660;2024-03-22T12:20:54;18.80;99.90
17341;DHT22;8788;49.930;8.660;2024-03-22T12:23:21;18.90;99.90
17341;DHT22;8788;49.930;8.660;2024-03-22T12:25:49;18.90;99.90
17341;DHT22;8788;49.930;8.660;2024-03-22T12:28:17;18.90;99.90
17341;DHT22;8788;49.930;8.660;2024-03-22T12:30:43;18.70;99.90
17341;DHT22;8788;49.930;8.660;2024-03-22T12:33:10;18.70;99.90
17341;DHT22;8788;49.930;8.660;2024-03-22T12:35:37;18.70;99.90
17341;DHT22;8788;49.930;8.660;2024-03-22T12:38:05;18.80;99.90
17341;DHT22;8788;49.930;8.660;2024-03-22T12:40:31;18.70;99.90
17341;DHT22;8788;49.930;8.660;2024-03-22T12:43:00;18.70;99.90
17341;DHT22;8788;49.930;8.660;2024-03-22T12:45:26;18.70;99.90
17341;DHT22;8788;49.930;8.660;2024-03-22T12:47:53;18.80;99.90
17341;DHT22;8788;49.930;8.660;2024-03-22T12:50:19;18.90;99.90
17341;DHT22;8788;49.930;8.660;2024-03-22T12:52:46;18.90;99.90
17341;DHT22;8788;49.930;8.660;2024-03-22T12:55:12;19.00;99.90
17341;DHT22;8788;49.930;8.660;2024-03-22T12:57:39;19.00;99.90
17341;DHT22;8788;49.930;8.660;2024-03-22T13:00:08;18.90;99.90
17341;DHT22;8788;49.930;8.660;2024-03-22T13:02:39;18.90;99.90
17341;DHT22;8788;49.930;8.660;2024-03-22T13:05:07;19.00;99.90
17341;DHT22;8788;49.930;8.660;2024-03-22T13:07:34;18.90;99.90
17341;DHT22;8788;49.930;8.660;2024-03-22T13:10:00;19.00;99.90
17341;DHT22;8788;49.930;8.660;2024-03-22T13:12:27;19.20;99.90
17341;DHT22;8788;49.930;8.660;2024-03-22T13:14:54;19.50;99.90
17341;DHT22;8788;49.930;8.660;2024-03-22T13:17:24;19.40;99.90
17341;DHT22;8788;49.930;8.660;2024-03-22T13:19:50;19.40;99.90
17341;DHT22;8788;49.930;8.660;2024-03-22T13:22:17;19.20;99.90
17341;DHT22;8788;49.930;8.660;2024-03-22T13:24:44;19.10;99.90
17341;DHT22;8788;49.930;8.660;2024-03-22T13:27:11;19.00;99.90
17341;DHT22;8788;49.930;8.660;2024-03-22T13:29:38;19.00;99.90
17341;DHT22;8788;49.930;8.660;2024-03-22T13:32:06;19.00;99.90
17341;DHT22;8788;49.930;8.660;2024-03-22T13:34:34;19.00;99.90
17341;DHT22;8788;49.930;8.660;2024-03-22T13:37:01;18.90;99.90
17341;DHT22;8788;49.930;8.660;2024-03-22T13:39:28;18.80;99.90
17341;DHT22;8788;49.930;8.660;2024-03-22T13:41:56;18.70;99.90
17341;DHT22;8788;49.930;8.660;2024-03-22T13:44:22;18.80;99.90
17341;DHT22;8788;49.930;8.660;2024-03-22T13:46:50;18.70;99.90
17341;DHT22;8788;49.930;8.660;2024-03-22T13:49:17;18.70;99.90
17341;DHT22;8788;49.930;8.660;2024-03-22T13:51:47;18.60;99.90
17341;DHT22;8788;49.930;8.660;2024-03-22T13:54:14;18.50;99.90
17341;DHT22;8788;49.930;8.660;2024-03-22T13:56:41;18.60;99.90
17341;DHT22;8788;49.930;8.660;2024-03-22T13:59:08;18.60;99.90
17341;DHT22;8788;49.930;8.660;2024-03-22T14:01:35;18.60;99.90
17341;DHT22;8788;49.930;8.660;2024-03-22T14:04:02;18.60;99.90
17341;DHT22;8788;49.930;8.660;2024-03-22T14:06:30;18.50;99.90
17341;DHT22;8788;49.930;8.660;2024-03-22T14:08:57;18.40;99.90
17341;DHT22;8788;49.930;8.660;2024-03-22T14:11:26;18.20;99.90
17341;DHT22;8788;49.930;8.660;2024-03-22T14:13:53;18.10;99.90
17341;DHT22;8788;49.930;8.660;2024-03-22T14:16:20;18.10;99.90
17341;DHT22;8788;49.930;8.660;2024-03-22T14:18:46;18.10;99.90
17341;DHT22;8788;49.930;8.660;2024-03-22T14:21:13;18.00;99.90
17341;DHT22;8788;49.930;8.660;2024-03-22T14:23:45;18.00;99.90
17341;DHT22;8788;49.930;8.660;2024-03-22T14:26:13;18.00;99.90
17341;DHT22;8788;49.930;8.660;2024-03-22T14:28:40;17.90;99.90
17341;DHT22;8788;49.930;8.660;2024-03-22T14:31:07;18.00;99.90
17341;DHT22;8788;49.930;8.660;2024-03-22T14:33:34;18.00;99.90
17341;DHT22;8788;49.930;8.660;2024-03-22T14:36:01;17.90;99.90
17341;DHT22;8788;49.930;8.660;2024-03-22T14:38:28;17.90;99.90
17341;DHT22;8788;49.930;8.660;2024-03-22T14:40:55;17.90;99.90
17341;DHT22;8788;49.930;8.660;2024-03-22T14:43:23;17.90;99.90
17341;DHT22;8788;49.930;8.660;2024-03-22T14:45:51;17.90;99.90
17341;DHT22;8788;49.930;8.660;2024-03-22T14:48:18;18.00;99.90
17341;DHT22;8788;49.930;8.660;2024-03-22T14:50:46;17.90;99.90
17341;DHT22;8788;49.930;8.660;2024-03-22T14:53:12;18.00;99.90
17341;DHT22;8788;49.930;8.660;2024-03-22T14:55:40;17.90;99.90
17341;DHT22;8788;49.930;8.660;2024-03-22T14:58:06;17.80;99.90
17341;DHT22;8788;49.930;8.660;2024-03-22T15:00:35;17.80;99.90
17341;DHT22;8788;49.930;8.660;2024-03-22T15:03:01;17.90;99.90
17341;DHT22;8788;49.930;8.660;2024-03-22T15:05:28;18.00;99.90
17341;DHT22;8788;49.930;8.660;2024-03-22T15:07:56;18.00;99.90
17341;DHT22;8788;49.930;8.660;2024-03-22T15:10:23;18.10;99.90
17341;DHT22;8788;49.930;8.660;2024-03-22T15:12:49;18.10;99.90
17341;DHT22;8788;49.930;8.660;2024-03-22T15:15:17;18.10;99.90
17341;DHT22;8788;49.930;8.660;2024-03-22T15:17:44;18.20;99.90
17341;DHT22;8788;49.930;8.660;2024-03-22T15:20:12;18.20;99.90
17341;DHT22;8788;49.930;8.660;2024-03-22T15:22:38;18.30;99.90
17341;DHT22;8788;49.930;8.660;2024-03-22T15:25:05;18.40;99.90
17341;DHT22;8788;49.930;8.660;2024-03-22T15:27:31;18.40;99.90
17341;DHT22;8788;49.930;8.660;2024-03-22T15:29:58;18.50;99.90
17341;DHT22;8788;49.930;8.660;2024-03-22T15:32:24;18.60;99.90
17341;DHT22;8788;49.930;8.660;2024-03-22T15:34:53;18.60;99.90
17341;DHT22;8788;49.930;8.660;2024-03-22T15:37:19;18.60;99.90
17341;DHT22;8788;49.930;8.660;2024-03-22T15:39:47;18.60;99.90
17341;DHT22;8788;49.930;8.660;2024-03-22T15:42:13;18.60;99.90
17341;DHT22;8788;49.930;8.660;2024-03-22T15:44:40;18.50;99.90
17341;DHT22;8788;49.930;8.660;2024-03-22T15:47:06;18.50;99.90
17341;DHT22;8788;49.930;8.660;2024-03-22T15:49:33;18.50;99.90
17341;DHT22;8788;49.930;8.660;2024-03-22T15:52:01;18.60;99.90